• Join FlightAware (Why Join?)
  • Login
  • US Flag GB Flag 
20:12 EDT


 

Airport Tracker/Info


-or-


 

Live Flight TrackerFlight Track Log ✈ CTL309 ✈ 22-Jul-2013 ✈ KBKL - KOSU

Flight Track Log - Related Links

Times and Time Zones

All times are in EDT time to prevent confusion due to time zone crossing. See the CTL309 flight status page for this flight to view local times or setup timezone preferences in your user account.

Time Position Orientation Groundspeed Altitude Reporting Facility
EDT Latitude Longitude Course Direction KTS MPH feet Rate Location/Type
21:58 41.5317 -81.6706 51° Northeast 145 167 1,000  Level Cleveland Center
21:59 41.5464 -81.6458 51° Northeast 140 161 2,600 1,020 Climbing Cleveland Center
22:00 41.5069 -81.6367 170° South 153 176 3,400 1,020 Climbing Cleveland Center
22:01 41.4675 -81.6222 165° South 142 163 4,700 1,200 Climbing Cleveland Center
22:02 41.4425 -81.6136 166° South 96 110 5,800 720 Climbing Cleveland Center
22:03 41.4111 -81.6408 213° Southwest 173 199 6,100 120 Climbing Cleveland Center
22:04 41.3772 -81.6872 226° Southwest 192 221 6,100  Level Cleveland Center
22:05 41.3433 -81.7364 227° Southwest 185 213 6,100 -60 Level Cleveland Center
22:06 41.2969 -81.7825 217° Southwest 187 215 6,000  Descending Cleveland Center
22:07 41.2569 -81.8344 224° Southwest 189 217 6,100  Climbing Cleveland Center
22:08 41.2189 -81.8806 222° Southwest 189 217 6,000  Descending Cleveland Center
22:10 41.1744 -81.9239 216° Southwest 187 215 6,100  Climbing Cleveland Center
22:10 41.1344 -81.9589 213° Southwest 187 215 6,100  Level Cleveland Center
22:12 41.0600 -82.0353 218° Southwest 186 214 6,100 -60 Level Indianapolis Center
22:13 41.0172 -82.0764 216° Southwest 187 215 6,000  Descending Indianapolis Center
22:14 40.9778 -82.1169 218° Southwest 180 207 6,100  Climbing Indianapolis Center
22:15 40.9383 -82.1592 219° Southwest 182 209 6,100 -60 Level Indianapolis Center
22:16 40.8967 -82.1989 216° Southwest 182 209 6,000 -60 Descending Indianapolis Center
22:17 40.8556 -82.2397 217° Southwest 183 211 6,000  Level Indianapolis Center
22:18 40.8144 -82.2817 218° Southwest 185 213 6,100  Climbing Indianapolis Center
22:19 40.7739 -82.3239 218° Southwest 184 212 6,000  Descending Indianapolis Center
22:20 40.7344 -82.3694 221° Southwest 186 214 6,100  Climbing Indianapolis Center
22:21 40.6911 -82.4058 212° Southwest 184 212 6,100  Level Indianapolis Center
22:22 40.6508 -82.4492 219° Southwest 185 213 6,100 -60 Level Indianapolis Center
22:23 40.6122 -82.4933 221° Southwest 183 211 6,000  Descending Indianapolis Center
22:24 40.5728 -82.5356 219° Southwest 182 209 6,100  Climbing Indianapolis Center
22:25 40.5339 -82.5769 219° Southwest 179 206 6,000 -60 Descending Indianapolis Center
22:27 40.4942 -82.6208 220° Southwest 184 212 6,000  Level Indianapolis Center
22:27 40.4603 -82.6592 221° Southwest 183 211 6,100 -300 Climbing Indianapolis Center
22:28 40.4158 -82.7072 219° Southwest 190 219 5,500 -540 Descending Indianapolis Center
22:30 40.3733 -82.7561 221° Southwest 194 223 5,000 -480 Descending Indianapolis Center
22:30 40.3383 -82.7964 221° Southwest 193 222 4,600 -540 Descending Indianapolis Center
22:31 40.2917 -82.8467 219° Southwest 191 220 4,000 -600 Descending Indianapolis Center
22:32 40.2542 -82.8872 220° Southwest 192 221 3,400 -540 Descending Indianapolis Center
22:33 40.2075 -82.9375 219° Southwest 188 216 3,000 -480 Descending Indianapolis Center
22:35 40.1578 -82.9733 209° Southwest 188 216 2,400 -540 Descending Indianapolis Center
22:36 40.1083 -83.0089 209° Southwest 176 203 1,800 -480 Descending Indianapolis Center
22:37 40.0811 -83.0389 220° Southwest 160 184 1,400 -420 Descending Indianapolis Center
22:39 40.0667 -83.0667 201° Southwest  Level FlightAware Approximate